sensor_id;sensor_type;location;lat;lon;timestamp;P1;durP1;ratioP1;P2;durP2;ratioP2
62102;SDS011;48077;48.104;11.702;2022-07-21T00:00:58;5.55;;;3.80;;
62102;SDS011;48077;48.104;11.702;2022-07-21T00:03:22;5.65;;;4.05;;
62102;SDS011;48077;48.104;11.702;2022-07-21T00:05:48;6.13;;;3.80;;
62102;SDS011;48077;48.104;11.702;2022-07-21T00:08:12;11.80;;;5.65;;
62102;SDS011;48077;48.104;11.702;2022-07-21T00:10:36;6.53;;;4.13;;
62102;SDS011;48077;48.104;11.702;2022-07-21T00:13:00;4.93;;;4.10;;
62102;SDS011;48077;48.104;11.702;2022-07-21T00:15:24;4.82;;;3.92;;
62102;SDS011;48077;48.104;11.702;2022-07-21T00:17:49;4.80;;;3.90;;
62102;SDS011;48077;48.104;11.702;2022-07-21T00:20:15;11.40;;;5.25;;
62102;SDS011;48077;48.104;11.702;2022-07-21T00:22:40;5.30;;;4.05;;
62102;SDS011;48077;48.104;11.702;2022-07-21T00:25:05;5.85;;;4.13;;
62102;SDS011;48077;48.104;11.702;2022-07-21T00:27:32;4.75;;;3.38;;
62102;SDS011;48077;48.104;11.702;2022-07-21T00:29:56;5.28;;;3.80;;
62102;SDS011;48077;48.104;11.702;2022-07-21T00:32:19;7.68;;;4.20;;
62102;SDS011;48077;48.104;11.702;2022-07-21T00:34:43;4.72;;;3.63;;
62102;SDS011;48077;48.104;11.702;2022-07-21T00:37:07;6.80;;;4.55;;
62102;SDS011;48077;48.104;11.702;2022-07-21T00:39:31;4.97;;;3.90;;
62102;SDS011;48077;48.104;11.702;2022-07-21T00:41:55;6.65;;;4.32;;
62102;SDS011;48077;48.104;11.702;2022-07-21T00:44:25;8.55;;;4.68;;
62102;SDS011;48077;48.104;11.702;2022-07-21T00:46:50;4.80;;;3.88;;
62102;SDS011;48077;48.104;11.702;2022-07-21T00:49:14;9.15;;;5.13;;
62102;SDS011;48077;48.104;11.702;2022-07-21T00:51:37;4.15;;;3.58;;
62102;SDS011;48077;48.104;11.702;2022-07-21T00:54:01;6.35;;;4.38;;
62102;SDS011;48077;48.104;11.702;2022-07-21T00:56:25;4.03;;;3.63;;
62102;SDS011;48077;48.104;11.702;2022-07-21T00:58:49;5.50;;;4.07;;
62102;SDS011;48077;48.104;11.702;2022-07-21T01:01:12;7.63;;;4.72;;
62102;SDS011;48077;48.104;11.702;2022-07-21T01:03:36;4.80;;;3.83;;
62102;SDS011;48077;48.104;11.702;2022-07-21T01:06:00;4.13;;;3.67;;
62102;SDS011;48077;48.104;11.702;2022-07-21T01:08:25;4.40;;;4.00;;
62102;SDS011;48077;48.104;11.702;2022-07-21T01:10:50;4.35;;;3.50;;
62102;SDS011;48077;48.104;11.702;2022-07-21T01:13:14;7.03;;;4.35;;
62102;SDS011;48077;48.104;11.702;2022-07-21T01:15:37;5.38;;;3.90;;
62102;SDS011;48077;48.104;11.702;2022-07-21T01:18:01;5.32;;;4.05;;
62102;SDS011;48077;48.104;11.702;2022-07-21T01:20:24;5.43;;;4.03;;
62102;SDS011;48077;48.104;11.702;2022-07-21T01:22:49;4.20;;;3.80;;
62102;SDS011;48077;48.104;11.702;2022-07-21T01:25:15;12.93;;;5.18;;
62102;SDS011;48077;48.104;11.702;2022-07-21T01:27:40;5.93;;;4.15;;
62102;SDS011;48077;48.104;11.702;2022-07-21T01:30:04;5.35;;;4.30;;
62102;SDS011;48077;48.104;11.702;2022-07-21T01:32:32;4.38;;;3.72;;
62102;SDS011;48077;48.104;11.702;2022-07-21T01:34:55;4.60;;;3.75;;
62102;SDS011;48077;48.104;11.702;2022-07-21T01:37:22;6.10;;;4.70;;
62102;SDS011;48077;48.104;11.702;2022-07-21T01:39:47;5.22;;;3.92;;
62102;SDS011;48077;48.104;11.702;2022-07-21T01:42:30;4.50;;;3.97;;
62102;SDS011;48077;48.104;11.702;2022-07-21T01:44:55;4.60;;;3.75;;
62102;SDS011;48077;48.104;11.702;2022-07-21T01:47:20;5.57;;;4.18;;
62102;SDS011;48077;48.104;11.702;2022-07-21T01:49:45;4.70;;;4.22;;
62102;SDS011;48077;48.104;11.702;2022-07-21T01:52:09;5.22;;;4.38;;
62102;SDS011;48077;48.104;11.702;2022-07-21T01:54:32;8.50;;;4.50;;
62102;SDS011;48077;48.104;11.702;2022-07-21T01:56:56;5.63;;;3.97;;
62102;SDS011;48077;48.104;11.702;2022-07-21T01:59:19;4.70;;;4.20;;
62102;SDS011;48077;48.104;11.702;2022-07-21T02:01:43;5.32;;;4.25;;
62102;SDS011;48077;48.104;11.702;2022-07-21T02:04:06;5.78;;;4.38;;
62102;SDS011;48077;48.104;11.702;2022-07-21T02:06:29;5.25;;;4.68;;
62102;SDS011;48077;48.104;11.702;2022-07-21T02:08:53;6.32;;;4.05;;
62102;SDS011;48077;48.104;11.702;2022-07-21T02:11:16;5.13;;;3.80;;
62102;SDS011;48077;48.104;11.702;2022-07-21T02:13:41;6.43;;;4.65;;
62102;SDS011;48077;48.104;11.702;2022-07-21T02:16:05;6.45;;;4.70;;
62102;SDS011;48077;48.104;11.702;2022-07-21T02:18:28;5.15;;;4.10;;
62102;SDS011;48077;48.104;11.702;2022-07-21T02:20:52;4.65;;;4.18;;
62102;SDS011;48077;48.104;11.702;2022-07-21T02:23:16;6.65;;;4.78;;
62102;SDS011;48077;48.104;11.702;2022-07-21T02:25:40;5.15;;;4.30;;
62102;SDS011;48077;48.104;11.702;2022-07-21T02:28:04;4.72;;;4.10;;
62102;SDS011;48077;48.104;11.702;2022-07-21T02:30:27;5.10;;;4.60;;
62102;SDS011;48077;48.104;11.702;2022-07-21T02:32:51;6.97;;;4.82;;
62102;SDS011;48077;48.104;11.702;2022-07-21T02:35:14;5.25;;;4.32;;
62102;SDS011;48077;48.104;11.702;2022-07-21T02:37:38;6.43;;;4.65;;
62102;SDS011;48077;48.104;11.702;2022-07-21T02:40:01;5.95;;;4.60;;
62102;SDS011;48077;48.104;11.702;2022-07-21T02:42:25;5.32;;;4.20;;
62102;SDS011;48077;48.104;11.702;2022-07-21T02:44:48;4.88;;;4.45;;
62102;SDS011;48077;48.104;11.702;2022-07-21T02:47:12;7.15;;;5.03;;
62102;SDS011;48077;48.104;11.702;2022-07-21T02:49:35;5.35;;;4.63;;
62102;SDS011;48077;48.104;11.702;2022-07-21T02:51:58;5.65;;;4.75;;
62102;SDS011;48077;48.104;11.702;2022-07-21T02:54:22;5.15;;;4.22;;
62102;SDS011;48077;48.104;11.702;2022-07-21T02:56:46;6.53;;;4.25;;
62102;SDS011;48077;48.104;11.702;2022-07-21T02:59:09;7.28;;;5.55;;
62102;SDS011;48077;48.104;11.702;2022-07-21T03:01:33;6.03;;;4.53;;
62102;SDS011;48077;48.104;11.702;2022-07-21T03:03:56;7.05;;;4.80;;
62102;SDS011;48077;48.104;11.702;2022-07-21T03:06:19;4.93;;;4.43;;
62102;SDS011;48077;48.104;11.702;2022-07-21T03:08:43;5.28;;;4.78;;
62102;SDS011;48077;48.104;11.702;2022-07-21T03:11:07;6.22;;;5.15;;
62102;SDS011;48077;48.104;11.702;2022-07-21T03:13:30;5.40;;;4.90;;
62102;SDS011;48077;48.104;11.702;2022-07-21T03:15:54;4.88;;;4.25;;
62102;SDS011;48077;48.104;11.702;2022-07-21T03:18:17;7.38;;;4.72;;
62102;SDS011;48077;48.104;11.702;2022-07-21T03:20:42;6.68;;;4.45;;
62102;SDS011;48077;48.104;11.702;2022-07-21T03:23:07;5.60;;;4.53;;
62102;SDS011;48077;48.104;11.702;2022-07-21T03:25:30;5.20;;;4.55;;
62102;SDS011;48077;48.104;11.702;2022-07-21T03:27:54;6.15;;;5.50;;
62102;SDS011;48077;48.104;11.702;2022-07-21T03:30:17;5.47;;;4.82;;
62102;SDS011;48077;48.104;11.702;2022-07-21T03:32:41;5.60;;;4.85;;
62102;SDS011;48077;48.104;11.702;2022-07-21T03:35:05;6.47;;;5.07;;
62102;SDS011;48077;48.104;11.702;2022-07-21T03:37:30;5.63;;;5.13;;
62102;SDS011;48077;48.104;11.702;2022-07-21T03:39:54;5.60;;;4.93;;
62102;SDS011;48077;48.104;11.702;2022-07-21T03:42:17;7.43;;;5.80;;
62102;SDS011;48077;48.104;11.702;2022-07-21T03:44:41;7.00;;;5.40;;
62102;SDS011;48077;48.104;11.702;2022-07-21T03:47:04;5.75;;;5.05;;
62102;SDS011;48077;48.104;11.702;2022-07-21T03:49:28;6.30;;;5.20;;
62102;SDS011;48077;48.104;11.702;2022-07-21T03:51:51;6.40;;;5.47;;
62102;SDS011;48077;48.104;11.702;2022-07-21T03:54:15;7.57;;;6.03;;
62102;SDS011;48077;48.104;11.702;2022-07-21T03:56:38;6.45;;;5.72;;
62102;SDS011;48077;48.104;11.702;2022-07-21T03:59:01;6.93;;;5.32;;
62102;SDS011;48077;48.104;11.702;2022-07-21T04:01:25;6.78;;;5.78;;
62102;SDS011;48077;48.104;11.702;2022-07-21T04:03:48;6.22;;;5.63;;
62102;SDS011;48077;48.104;11.702;2022-07-21T04:06:12;7.82;;;5.90;;
62102;SDS011;48077;48.104;11.702;2022-07-21T04:08:36;7.57;;;5.72;;
62102;SDS011;48077;48.104;11.702;2022-07-21T04:11:00;6.82;;;5.95;;
62102;SDS011;48077;48.104;11.702;2022-07-21T04:13:23;6.57;;;5.75;;
62102;SDS011;48077;48.104;11.702;2022-07-21T04:15:46;6.75;;;6.10;;
62102;SDS011;48077;48.104;11.702;2022-07-21T04:18:10;7.00;;;6.30;;
62102;SDS011;48077;48.104;11.702;2022-07-21T04:20:33;7.78;;;6.78;;
62102;SDS011;48077;48.104;11.702;2022-07-21T04:22:57;10.32;;;7.85;;
62102;SDS011;48077;48.104;11.702;2022-07-21T04:25:20;9.05;;;8.05;;
62102;SDS011;48077;48.104;11.702;2022-07-21T04:27:45;11.15;;;9.30;;
62102;SDS011;48077;48.104;11.702;2022-07-21T04:30:10;10.38;;;9.27;;
62102;SDS011;48077;48.104;11.702;2022-07-21T04:32:36;12.65;;;9.95;;
62102;SDS011;48077;48.104;11.702;2022-07-21T04:34:59;12.52;;;9.88;;
62102;SDS011;48077;48.104;11.702;2022-07-21T04:37:23;11.75;;;9.45;;
62102;SDS011;48077;48.104;11.702;2022-07-21T04:39:46;10.55;;;9.55;;
62102;SDS011;48077;48.104;11.702;2022-07-21T04:42:09;12.32;;;10.27;;
62102;SDS011;48077;48.104;11.702;2022-07-21T04:44:33;13.35;;;9.75;;
62102;SDS011;48077;48.104;11.702;2022-07-21T04:46:56;11.68;;;9.80;;
62102;SDS011;48077;48.104;11.702;2022-07-21T04:49:21;10.52;;;8.82;;
62102;SDS011;48077;48.104;11.702;2022-07-21T04:51:45;10.27;;;9.25;;
62102;SDS011;48077;48.104;11.702;2022-07-21T04:54:08;11.27;;;10.07;;
62102;SDS011;48077;48.104;11.702;2022-07-21T04:56:32;10.20;;;9.10;;
62102;SDS011;48077;48.104;11.702;2022-07-21T04:58:58;11.05;;;9.40;;
62102;SDS011;48077;48.104;11.702;2022-07-21T05:01:22;11.57;;;8.98;;
62102;SDS011;48077;48.104;11.702;2022-07-21T05:03:46;9.30;;;8.32;;
62102;SDS011;48077;48.104;11.702;2022-07-21T05:06:12;14.07;;;9.63;;
62102;SDS011;48077;48.104;11.702;2022-07-21T05:08:36;11.45;;;9.40;;
62102;SDS011;48077;48.104;11.702;2022-07-21T05:10:59;10.27;;;9.18;;
62102;SDS011;48077;48.104;11.702;2022-07-21T05:13:22;11.40;;;10.20;;
62102;SDS011;48077;48.104;11.702;2022-07-21T05:15:46;10.90;;;9.48;;
62102;SDS011;48077;48.104;11.702;2022-07-21T05:18:09;17.20;;;11.50;;
62102;SDS011;48077;48.104;11.702;2022-07-21T05:20:33;12.73;;;11.25;;
62102;SDS011;48077;48.104;11.702;2022-07-21T05:22:56;13.95;;;10.75;;
62102;SDS011;48077;48.104;11.702;2022-07-21T05:25:19;13.35;;;11.38;;
62102;SDS011;48077;48.104;11.702;2022-07-21T05:27:43;13.38;;;10.82;;
62102;SDS011;48077;48.104;11.702;2022-07-21T05:30:07;13.30;;;10.27;;
62102;SDS011;48077;48.104;11.702;2022-07-21T05:32:30;13.73;;;10.63;;
62102;SDS011;48077;48.104;11.702;2022-07-21T05:34:54;13.88;;;11.07;;
62102;SDS011;48077;48.104;11.702;2022-07-21T05:37:17;14.07;;;11.10;;
62102;SDS011;48077;48.104;11.702;2022-07-21T05:39:40;13.88;;;11.82;;
62102;SDS011;48077;48.104;11.702;2022-07-21T05:42:04;12.75;;;11.00;;
62102;SDS011;48077;48.104;11.702;2022-07-21T05:44:27;11.98;;;10.65;;
62102;SDS011;48077;48.104;11.702;2022-07-21T05:46:50;12.52;;;11.23;;
62102;SDS011;48077;48.104;11.702;2022-07-21T05:49:14;14.27;;;10.95;;
62102;SDS011;48077;48.104;11.702;2022-07-21T05:51:37;10.63;;;9.50;;
62102;SDS011;48077;48.104;11.702;2022-07-21T05:54:00;10.88;;;9.50;;
62102;SDS011;48077;48.104;11.702;2022-07-21T05:56:24;15.55;;;11.20;;
62102;SDS011;48077;48.104;11.702;2022-07-21T05:58:47;13.25;;;11.70;;
62102;SDS011;48077;48.104;11.702;2022-07-21T06:01:11;13.60;;;11.30;;
62102;SDS011;48077;48.104;11.702;2022-07-21T06:03:40;14.23;;;12.77;;
62102;SDS011;48077;48.104;11.702;2022-07-21T06:06:06;14.45;;;11.80;;
62102;SDS011;48077;48.104;11.702;2022-07-21T06:08:29;15.75;;;11.85;;
62102;SDS011;48077;48.104;11.702;2022-07-21T06:10:52;14.93;;;12.95;;
62102;SDS011;48077;48.104;11.702;2022-07-21T06:13:16;12.88;;;11.52;;
62102;SDS011;48077;48.104;11.702;2022-07-21T06:15:39;13.95;;;12.55;;
62102;SDS011;48077;48.104;11.702;2022-07-21T06:18:03;13.00;;;11.68;;
62102;SDS011;48077;48.104;11.702;2022-07-21T06:20:26;16.65;;;11.95;;
62102;SDS011;48077;48.104;11.702;2022-07-21T06:22:49;13.15;;;10.48;;
62102;SDS011;48077;48.104;11.702;2022-07-21T06:25:13;13.75;;;10.13;;
62102;SDS011;48077;48.104;11.702;2022-07-21T06:27:36;12.73;;;10.25;;
62102;SDS011;48077;48.104;11.702;2022-07-21T06:30:00;15.98;;;13.65;;
62102;SDS011;48077;48.104;11.702;2022-07-21T06:32:23;18.80;;;11.23;;
62102;SDS011;48077;48.104;11.702;2022-07-21T06:34:47;17.02;;;12.50;;
62102;SDS011;48077;48.104;11.702;2022-07-21T06:37:11;17.30;;;14.63;;
62102;SDS011;48077;48.104;11.702;2022-07-21T06:39:34;14.50;;;12.10;;
62102;SDS011;48077;48.104;11.702;2022-07-21T06:42:02;15.60;;;11.55;;
62102;SDS011;48077;48.104;11.702;2022-07-21T06:44:26;11.70;;;10.50;;
62102;SDS011;48077;48.104;11.702;2022-07-21T06:46:50;14.80;;;11.35;;
62102;SDS011;48077;48.104;11.702;2022-07-21T06:49:13;18.42;;;13.60;;
62102;SDS011;48077;48.104;11.702;2022-07-21T06:51:37;14.88;;;12.27;;
62102;SDS011;48077;48.104;11.702;2022-07-21T06:54:00;17.13;;;14.23;;
62102;SDS011;48077;48.104;11.702;2022-07-21T06:56:23;16.60;;;14.38;;
62102;SDS011;48077;48.104;11.702;2022-07-21T06:58:47;16.48;;;12.73;;
62102;SDS011;48077;48.104;11.702;2022-07-21T07:01:11;15.40;;;12.52;;
62102;SDS011;48077;48.104;11.702;2022-07-21T07:03:35;12.93;;;11.13;;
62102;SDS011;48077;48.104;11.702;2022-07-21T07:05:59;12.07;;;10.85;;
62102;SDS011;48077;48.104;11.702;2022-07-21T07:08:22;15.25;;;13.15;;
62102;SDS011;48077;48.104;11.702;2022-07-21T07:10:46;17.23;;;12.85;;
62102;SDS011;48077;48.104;11.702;2022-07-21T07:13:10;15.25;;;12.63;;
62102;SDS011;48077;48.104;11.702;2022-07-21T07:15:33;13.93;;;12.40;;
62102;SDS011;48077;48.104;11.702;2022-07-21T07:17:57;18.25;;;15.18;;
62102;SDS011;48077;48.104;11.702;2022-07-21T07:20:20;18.35;;;14.73;;
62102;SDS011;48077;48.104;11.702;2022-07-21T07:22:44;14.48;;;13.00;;
62102;SDS011;48077;48.104;11.702;2022-07-21T07:25:08;16.40;;;14.23;;
62102;SDS011;48077;48.104;11.702;2022-07-21T07:27:32;19.10;;;13.50;;
62102;SDS011;48077;48.104;11.702;2022-07-21T07:29:56;13.68;;;12.25;;
62102;SDS011;48077;48.104;11.702;2022-07-21T07:32:19;17.75;;;14.10;;
62102;SDS011;48077;48.104;11.702;2022-07-21T07:34:42;14.82;;;12.55;;
62102;SDS011;48077;48.104;11.702;2022-07-21T07:37:06;13.52;;;12.13;;
62102;SDS011;48077;48.104;11.702;2022-07-21T07:39:30;14.13;;;12.25;;
62102;SDS011;48077;48.104;11.702;2022-07-21T07:41:53;13.57;;;11.98;;
62102;SDS011;48077;48.104;11.702;2022-07-21T07:44:18;12.50;;;11.20;;
62102;SDS011;48077;48.104;11.702;2022-07-21T07:46:41;17.67;;;13.85;;
62102;SDS011;48077;48.104;11.702;2022-07-21T07:49:05;15.32;;;13.77;;
62102;SDS011;48077;48.104;11.702;2022-07-21T07:51:28;14.15;;;12.65;;
62102;SDS011;48077;48.104;11.702;2022-07-21T07:53:51;16.73;;;12.73;;
62102;SDS011;48077;48.104;11.702;2022-07-21T07:56:15;17.92;;;13.60;;
62102;SDS011;48077;48.104;11.702;2022-07-21T07:58:38;18.50;;;13.27;;
62102;SDS011;48077;48.104;11.702;2022-07-21T08:01:02;17.27;;;13.65;;
62102;SDS011;48077;48.104;11.702;2022-07-21T08:03:26;12.60;;;11.23;;
62102;SDS011;48077;48.104;11.702;2022-07-21T08:05:50;14.15;;;11.27;;
62102;SDS011;48077;48.104;11.702;2022-07-21T08:08:14;15.38;;;12.45;;
62102;SDS011;48077;48.104;11.702;2022-07-21T08:10:38;14.48;;;12.57;;
62102;SDS011;48077;48.104;11.702;2022-07-21T08:13:01;14.65;;;11.98;;
62102;SDS011;48077;48.104;11.702;2022-07-21T08:15:25;13.38;;;10.95;;
62102;SDS011;48077;48.104;11.702;2022-07-21T08:17:48;14.30;;;11.65;;
62102;SDS011;48077;48.104;11.702;2022-07-21T08:20:11;16.13;;;11.90;;
62102;SDS011;48077;48.104;11.702;2022-07-21T08:22:35;13.32;;;11.88;;
62102;SDS011;48077;48.104;11.702;2022-07-21T08:24:58;19.15;;;13.63;;
62102;SDS011;48077;48.104;11.702;2022-07-21T08:27:21;12.43;;;11.05;;
62102;SDS011;48077;48.104;11.702;2022-07-21T08:29:45;12.63;;;10.23;;
62102;SDS011;48077;48.104;11.702;2022-07-21T08:32:09;12.75;;;10.77;;
62102;SDS011;48077;48.104;11.702;2022-07-21T08:34:33;13.25;;;11.85;;
62102;SDS011;48077;48.104;11.702;2022-07-21T08:36:57;15.60;;;11.50;;
62102;SDS011;48077;48.104;11.702;2022-07-21T08:39:20;13.60;;;12.25;;
62102;SDS011;48077;48.104;11.702;2022-07-21T08:41:44;21.40;;;13.50;;
62102;SDS011;48077;48.104;11.702;2022-07-21T08:44:07;14.45;;;11.95;;
62102;SDS011;48077;48.104;11.702;2022-07-21T08:46:33;14.55;;;12.30;;
62102;SDS011;48077;48.104;11.702;2022-07-21T08:48:57;12.75;;;11.27;;
62102;SDS011;48077;48.104;11.702;2022-07-21T08:51:24;14.05;;;11.63;;
62102;SDS011;48077;48.104;11.702;2022-07-21T08:53:48;13.38;;;11.07;;
62102;SDS011;48077;48.104;11.702;2022-07-21T08:56:11;17.55;;;14.15;;
62102;SDS011;48077;48.104;11.702;2022-07-21T08:58:35;15.38;;;12.75;;
62102;SDS011;48077;48.104;11.702;2022-07-21T09:01:00;14.35;;;12.75;;
62102;SDS011;48077;48.104;11.702;2022-07-21T09:03:24;16.40;;;13.32;;
62102;SDS011;48077;48.104;11.702;2022-07-21T09:06:03;12.23;;;10.93;;
62102;SDS011;48077;48.104;11.702;2022-07-21T09:08:43;20.27;;;14.30;;
62102;SDS011;48077;48.104;11.702;2022-07-21T09:13:47;15.02;;;12.73;;
62102;SDS011;48077;48.104;11.702;2022-07-21T09:16:15;13.20;;;11.80;;
62102;SDS011;48077;48.104;11.702;2022-07-21T09:18:55;15.13;;;12.38;;
62102;SDS011;48077;48.104;11.702;2022-07-21T09:21:19;12.57;;;10.90;;
62102;SDS011;48077;48.104;11.702;2022-07-21T09:23:42;13.60;;;12.18;;
62102;SDS011;48077;48.104;11.702;2022-07-21T09:26:06;13.15;;;11.82;;
62102;SDS011;48077;48.104;11.702;2022-07-21T09:28:30;16.08;;;13.38;;
62102;SDS011;48077;48.104;11.702;2022-07-21T09:31:00;15.45;;;12.43;;
62102;SDS011;48077;48.104;11.702;2022-07-21T09:35:58;14.02;;;11.95;;
62102;SDS011;48077;48.104;11.702;2022-07-21T09:38:26;14.00;;;11.35;;
62102;SDS011;48077;48.104;11.702;2022-07-21T09:40:53;14.65;;;12.20;;
62102;SDS011;48077;48.104;11.702;2022-07-21T09:43:36;15.65;;;12.80;;
62102;SDS011;48077;48.104;11.702;2022-07-21T09:46:12;16.08;;;12.70;;
62102;SDS011;48077;48.104;11.702;2022-07-21T09:48:38;12.80;;;11.50;;
62102;SDS011;48077;48.104;11.702;2022-07-21T09:54:08;14.30;;;12.07;;
62102;SDS011;48077;48.104;11.702;2022-07-21T09:59:07;16.20;;;12.70;;
62102;SDS011;48077;48.104;11.702;2022-07-21T10:01:32;15.38;;;12.52;;
62102;SDS011;48077;48.104;11.702;2022-07-21T10:03:56;15.65;;;13.32;;
62102;SDS011;48077;48.104;11.702;2022-07-21T10:06:24;16.30;;;13.32;;
62102;SDS011;48077;48.104;11.702;2022-07-21T10:08:49;15.32;;;12.82;;
62102;SDS011;48077;48.104;11.702;2022-07-21T10:11:12;16.92;;;13.05;;
62102;SDS011;48077;48.104;11.702;2022-07-21T10:13:36;16.98;;;13.00;;
62102;SDS011;48077;48.104;11.702;2022-07-21T10:16:01;19.75;;;14.32;;
62102;SDS011;48077;48.104;11.702;2022-07-21T10:18:25;13.07;;;11.68;;
62102;SDS011;48077;48.104;11.702;2022-07-21T10:20:54;15.90;;;11.68;;
62102;SDS011;48077;48.104;11.702;2022-07-21T10:23:26;13.82;;;12.43;;
62102;SDS011;48077;48.104;11.702;2022-07-21T10:25:59;15.13;;;13.52;;
62102;SDS011;48077;48.104;11.702;2022-07-21T10:28:23;19.55;;;15.45;;
62102;SDS011;48077;48.104;11.702;2022-07-21T10:30:47;20.50;;;14.88;;
62102;SDS011;48077;48.104;11.702;2022-07-21T10:33:12;24.42;;;17.50;;
62102;SDS011;48077;48.104;11.702;2022-07-21T10:35:42;16.38;;;14.57;;
62102;SDS011;48077;48.104;11.702;2022-07-21T10:38:06;15.43;;;13.70;;
62102;SDS011;48077;48.104;11.702;2022-07-21T10:40:48;20.58;;;17.15;;
62102;SDS011;48077;48.104;11.702;2022-07-21T10:45:38;19.45;;;15.80;;
62102;SDS011;48077;48.104;11.702;2022-07-21T10:48:07;17.42;;;14.52;;
62102;SDS011;48077;48.104;11.702;2022-07-21T10:52:56;15.65;;;13.48;;
62102;SDS011;48077;48.104;11.702;2022-07-21T10:55:22;16.75;;;13.73;;
62102;SDS011;48077;48.104;11.702;2022-07-21T10:57:51;16.08;;;12.68;;
62102;SDS011;48077;48.104;11.702;2022-07-21T11:00:39;17.20;;;14.30;;
62102;SDS011;48077;48.104;11.702;2022-07-21T11:03:17;14.50;;;12.10;;
62102;SDS011;48077;48.104;11.702;2022-07-21T11:08:38;15.68;;;13.77;;
62102;SDS011;48077;48.104;11.702;2022-07-21T11:11:15;18.90;;;15.52;;
62102;SDS011;48077;48.104;11.702;2022-07-21T11:13:57;17.00;;;13.93;;
62102;SDS011;48077;48.104;11.702;2022-07-21T11:19:02;17.55;;;14.75;;
62102;SDS011;48077;48.104;11.702;2022-07-21T11:21:26;16.98;;;14.45;;
62102;SDS011;48077;48.104;11.702;2022-07-21T11:23:49;16.38;;;13.52;;
62102;SDS011;48077;48.104;11.702;2022-07-21T11:26:14;20.60;;;15.95;;
62102;SDS011;48077;48.104;11.702;2022-07-21T11:28:40;15.35;;;12.90;;
62102;SDS011;48077;48.104;11.702;2022-07-21T11:31:06;17.77;;;13.15;;
62102;SDS011;48077;48.104;11.702;2022-07-21T11:33:30;16.13;;;13.63;;
62102;SDS011;48077;48.104;11.702;2022-07-21T11:35:53;13.55;;;11.82;;
62102;SDS011;48077;48.104;11.702;2022-07-21T11:38:17;16.67;;;13.20;;
62102;SDS011;48077;48.104;11.702;2022-07-21T11:40:40;14.35;;;12.05;;
62102;SDS011;48077;48.104;11.702;2022-07-21T11:43:04;13.98;;;11.75;;
62102;SDS011;48077;48.104;11.702;2022-07-21T11:45:27;14.18;;;12.27;;
62102;SDS011;48077;48.104;11.702;2022-07-21T11:47:51;17.98;;;14.00;;
62102;SDS011;48077;48.104;11.702;2022-07-21T11:50:15;18.52;;;14.18;;
62102;SDS011;48077;48.104;11.702;2022-07-21T11:52:39;16.67;;;13.60;;
62102;SDS011;48077;48.104;11.702;2022-07-21T11:55:03;19.45;;;12.93;;
62102;SDS011;48077;48.104;11.702;2022-07-21T11:57:28;17.08;;;13.48;;
62102;SDS011;48077;48.104;11.702;2022-07-21T11:59:52;17.02;;;14.10;;
62102;SDS011;48077;48.104;11.702;2022-07-21T12:02:18;18.17;;;12.82;;
62102;SDS011;48077;48.104;11.702;2022-07-21T12:09:42;15.00;;;11.95;;
62102;SDS011;48077;48.104;11.702;2022-07-21T12:12:08;13.68;;;12.23;;
62102;SDS011;48077;48.104;11.702;2022-07-21T12:17:05;13.88;;;12.20;;
62102;SDS011;48077;48.104;11.702;2022-07-21T12:19:28;17.98;;;14.30;;
62102;SDS011;48077;48.104;11.702;2022-07-21T12:21:52;15.82;;;12.68;;
62102;SDS011;48077;48.104;11.702;2022-07-21T12:24:16;14.25;;;12.63;;
62102;SDS011;48077;48.104;11.702;2022-07-21T12:26:40;13.57;;;11.82;;
62102;SDS011;48077;48.104;11.702;2022-07-21T12:29:04;15.63;;;12.77;;
62102;SDS011;48077;48.104;11.702;2022-07-21T12:31:27;14.95;;;11.45;;
62102;SDS011;48077;48.104;11.702;2022-07-21T12:33:51;15.35;;;11.90;;
62102;SDS011;48077;48.104;11.702;2022-07-21T12:36:16;14.57;;;12.30;;
62102;SDS011;48077;48.104;11.702;2022-07-21T12:38:44;14.98;;;12.20;;
62102;SDS011;48077;48.104;11.702;2022-07-21T12:41:10;16.77;;;13.70;;
62102;SDS011;48077;48.104;11.702;2022-07-21T12:43:35;14.93;;;12.80;;
62102;SDS011;48077;48.104;11.702;2022-07-21T12:48:32;12.65;;;11.30;;
62102;SDS011;48077;48.104;11.702;2022-07-21T12:51:03;12.57;;;11.20;;
62102;SDS011;48077;48.104;11.702;2022-07-21T12:53:33;14.48;;;12.25;;
62102;SDS011;48077;48.104;11.702;2022-07-21T12:55:58;15.25;;;12.43;;
62102;SDS011;48077;48.104;11.702;2022-07-21T12:58:21;14.75;;;12.85;;
62102;SDS011;48077;48.104;11.702;2022-07-21T13:00:45;17.20;;;13.10;;
62102;SDS011;48077;48.104;11.702;2022-07-21T13:03:09;17.98;;;13.50;;
62102;SDS011;48077;48.104;11.702;2022-07-21T13:05:32;14.48;;;11.90;;
62102;SDS011;48077;48.104;11.702;2022-07-21T13:07:55;15.00;;;11.07;;
62102;SDS011;48077;48.104;11.702;2022-07-21T13:10:19;13.10;;;10.82;;
62102;SDS011;48077;48.104;11.702;2022-07-21T13:12:43;13.18;;;11.32;;
62102;SDS011;48077;48.104;11.702;2022-07-21T13:15:06;15.80;;;11.80;;
62102;SDS011;48077;48.104;11.702;2022-07-21T13:17:30;14.88;;;13.13;;
62102;SDS011;48077;48.104;11.702;2022-07-21T13:19:53;17.05;;;13.10;;
62102;SDS011;48077;48.104;11.702;2022-07-21T13:22:17;17.70;;;13.80;;
62102;SDS011;48077;48.104;11.702;2022-07-21T13:24:40;19.60;;;15.30;;
62102;SDS011;48077;48.104;11.702;2022-07-21T13:27:04;18.70;;;14.35;;
62102;SDS011;48077;48.104;11.702;2022-07-21T13:29:27;20.52;;;15.48;;
62102;SDS011;48077;48.104;11.702;2022-07-21T13:31:51;26.40;;;16.65;;
62102;SDS011;48077;48.104;11.702;2022-07-21T13:34:14;22.00;;;16.00;;
62102;SDS011;48077;48.104;11.702;2022-07-21T13:36:37;21.08;;;15.18;;
62102;SDS011;48077;48.104;11.702;2022-07-21T13:39:01;22.08;;;16.25;;
62102;SDS011;48077;48.104;11.702;2022-07-21T13:41:26;22.17;;;16.15;;
62102;SDS011;48077;48.104;11.702;2022-07-21T13:43:50;26.10;;;18.25;;
62102;SDS011;48077;48.104;11.702;2022-07-21T13:46:13;22.27;;;16.65;;
62102;SDS011;48077;48.104;11.702;2022-07-21T13:48:37;22.95;;;17.20;;
62102;SDS011;48077;48.104;11.702;2022-07-21T13:51:02;24.85;;;19.30;;
62102;SDS011;48077;48.104;11.702;2022-07-21T13:53:26;24.92;;;19.52;;
62102;SDS011;48077;48.104;11.702;2022-07-21T13:55:49;26.15;;;19.67;;
62102;SDS011;48077;48.104;11.702;2022-07-21T13:58:16;30.30;;;20.30;;
62102;SDS011;48077;48.104;11.702;2022-07-21T14:00:39;26.55;;;20.00;;
62102;SDS011;48077;48.104;11.702;2022-07-21T14:03:03;26.77;;;20.65;;
62102;SDS011;48077;48.104;11.702;2022-07-21T14:05:26;30.00;;;21.70;;
62102;SDS011;48077;48.104;11.702;2022-07-21T14:07:50;31.88;;;22.50;;
62102;SDS011;48077;48.104;11.702;2022-07-21T14:10:13;32.55;;;23.42;;
62102;SDS011;48077;48.104;11.702;2022-07-21T14:12:37;30.60;;;22.77;;
62102;SDS011;48077;48.104;11.702;2022-07-21T14:15:00;34.95;;;28.55;;
62102;SDS011;48077;48.104;11.702;2022-07-21T14:17:23;38.45;;;31.42;;
62102;SDS011;48077;48.104;11.702;2022-07-21T14:19:47;46.38;;;41.15;;
62102;SDS011;48077;48.104;11.702;2022-07-21T14:22:11;56.22;;;50.65;;
62102;SDS011;48077;48.104;11.702;2022-07-21T14:24:35;64.80;;;58.58;;
62102;SDS011;48077;48.104;11.702;2022-07-21T14:27:17;81.45;;;73.78;;
62102;SDS011;48077;48.104;11.702;2022-07-21T14:29:41;98.90;;;89.60;;
62102;SDS011;48077;48.104;11.702;2022-07-21T14:32:04;109.60;;;98.95;;
62102;SDS011;48077;48.104;11.702;2022-07-21T14:34:28;122.32;;;110.13;;